Harbor Isle, New York
Current Conditions -  °F | °C
As of 6:51 AM on Saturday 22 Nov 2014 (Local Time) from KJFK Reporting Station
Few Clouds Few Clouds  
Wind Chill: 19°   Ceiling: Unl
Heat Index: 29°   Visibility: 10mi
Dew Point: 14°   Wind: 12mph
Humidity: 54%   Direction: 260°W
Pressure: 30.51"   Gusts: NA
Location:  40.6062°N, 73.6508°W
Report Text: KJFK 221151Z 26010KT 10SM FEW260 M02/M10 A3051 RMK AO2 SLP331 T10171100 11006 21033 53004
Loading
Personal Weather Stations






























Interactive Weather Map New forecast layout! Learn more

10-Day Weather Forecast

Advertisements
Track Severe Weather on mobile